Aviation Digital Data Service (ADDS)

Output produced by TAFs form (1651 UTC 21 January 2018)
found at http://aviationweather.gov/adds/tafs/
 
KDRO 211611Z 2116/2212 24006KT P6SM VCSH BKN008 BKN016 OVC035 
     TEMPO 2116/2118 4SM -SN BR BKN016 OVC030 
     FM211800 26018G28KT P6SM VCSH SCT035 BKN060 
     FM212000 27024G38KT P6SM FEW040 SCT070